FKL weather

Venango Regional Airport
Franklin, Pennsylvania, United States

Public forecast

Using degrees Fahrenheit for public forecast. Weather courtesy of forecast.io.

METAR (pilot weather report)

Retrieved 2019/06/19 08:09 UTC (0 seconds ago):

KFKL 190809Z AUTO 13005KT 6SM BR FEW001 OVC009 18/17 A2987 RMK AO2 CIG 005V011

TAF (pilot weather forecast)

Retrieved 2019/06/19 06:22 UTC (2 hours ago):

TAF KFKL 190520Z 1906/2006 VRB02KT 2SM BR BKN005 FM191400 VRB02KT P6SM BKN010 FM191700 VRB02KT P6SM VCSH BKN025 FM192200 32003KT P6SM BKN050